Time;durP1;ratioP1;P1;durP2;ratioP2;P2;SDS_P1;SDS_P2;PMS_P1;PMS_P2;Temp;Humidity;BMP_temperature;BMP_pressure;BME280_temperature;BME280_humidity;BME280_pressure;Samples;Min_cycle;Max_cycle;Signal;HPM_P1;HPM_P2
2022/05/07 00:02:58;;;;;;;6.43;4.13;;;18.50;48.20;;;;;;5095876;28;20447;-91
2022/05/07 00:05:31;;;;;;;4.00;3.70;;;18.40;48.20;;;;;;5070129;28;20456;-92
2022/05/07 00:10:59;;;;;;;5.20;3.67;;;18.30;48.30;;;;;;5068684;28;20448;-90
2022/05/07 00:13:52;;;;;;;5.60;4.60;;;18.30;48.60;;;;;;5068089;28;20436;-91
2022/05/07 00:19:06;;;;;;;4.80;4.27;;;18.20;48.80;;;;;;5062023;28;20460;-92
2022/05/07 00:21:35;;;;;;;4.27;3.87;;;18.10;48.60;;;;;;5081601;28;20495;-91
2022/05/07 00:24:02;;;;;;;4.23;3.80;;;18.10;48.80;;;;;;5062273;28;20441;-91
2022/05/07 00:27:00;;;;;;;5.23;4.07;;;18.10;48.70;;;;;;5065540;28;20452;-92
2022/05/07 00:29:28;;;;;;;7.10;3.93;;;18.10;48.70;;;;;;5094142;28;20472;-92
2022/05/07 00:31:58;;;;;;;8.00;4.33;;;18.00;48.60;;;;;;5099348;28;20451;-92
2022/05/07 00:34:26;;;;;;;4.97;3.63;;;17.90;49.00;;;;;;5077249;28;20467;-91
2022/05/07 00:37:20;;;;;;;4.00;3.60;;;17.80;48.90;;;;;;5095644;28;20456;-91
2022/05/07 00:39:52;;;;;;;4.10;3.80;;;17.80;48.80;;;;;;5079445;28;21045;-92
2022/05/07 00:42:25;;;;;;;3.50;3.20;;;17.80;49.10;;;;;;5080286;28;20452;-90
2022/05/07 00:44:54;;;;;;;4.30;3.40;;;17.80;49.60;;;;;;5082131;28;20463;-91
2022/05/07 00:47:47;;;;;;;3.90;3.57;;;17.70;49.60;;;;;;5067663;28;20464;-91
2022/05/07 00:53:07;;;;;;;2.93;2.70;;;17.70;49.70;;;;;;5065006;28;20459;-92
2022/05/07 00:55:36;;;;;;;3.30;3.00;;;17.60;49.60;;;;;;5048261;28;20465;-93
2022/05/07 00:58:30;;;;;;;3.53;3.23;;;17.60;49.60;;;;;;5053567;28;20558;-92
2022/05/07 01:00:57;;;;;;;3.83;3.27;;;17.50;49.70;;;;;;5048272;28;20456;-90
2022/05/07 01:03:25;;;;;;;3.00;2.70;;;17.40;49.70;;;;;;5070018;28;20954;-90
2022/05/07 01:05:53;;;;;;;4.40;3.67;;;17.50;49.80;;;;;;5046506;28;20447;-94
2022/05/07 01:08:46;;;;;;;5.83;3.40;;;17.40;49.80;;;;;;5082524;28;20909;-91
2022/05/07 01:17:07;;;;;;;3.90;3.60;;;17.20;49.70;;;;;;5081449;28;21048;-91
2022/05/07 01:19:59;;;;;;;4.30;3.70;;;17.10;50.00;;;;;;5061674;28;20494;-93
2022/05/07 01:25:26;;;;;;;4.20;3.80;;;17.00;50.30;;;;;;5079943;28;20444;-91
2022/05/07 01:27:55;;;;;;;5.33;3.70;;;16.90;50.30;;;;;;5062782;28;20476;-91
2022/05/07 01:30:29;;;;;;;3.97;3.60;;;16.90;50.00;;;;;;5077972;28;20472;-91
2022/05/07 01:32:57;;;;;;;4.40;3.57;;;16.90;50.30;;;;;;5084361;28;20486;-91
2022/05/07 01:35:28;;;;;;;3.57;3.17;;;16.90;50.30;;;;;;5050853;28;20510;-90
2022/05/07 01:38:02;;;;;;;3.23;2.90;;;16.90;50.30;;;;;;5091517;28;20472;-90
2022/05/07 01:40:47;;;;;;;5.03;3.13;;;16.90;50.00;;;;;;5094078;28;20435;-90
2022/05/07 01:43:14;;;;;;;4.50;3.10;;;16.90;50.30;;;;;;5063629;28;20456;-91
2022/05/07 01:45:42;;;;;;;5.90;3.70;;;16.80;50.50;;;;;;5078772;28;20451;-91
2022/05/07 01:48:11;;;;;;;3.67;3.37;;;16.70;50.30;;;;;;5065860;28;20521;-92
2022/05/07 01:50:51;;;;;;;3.57;3.37;;;16.70;50.70;;;;;;5061934;28;20523;-91
2022/05/07 01:53:25;;;;;;;4.47;3.40;;;16.60;50.80;;;;;;5068341;28;20532;-92
2022/05/07 01:55:54;;;;;;;4.40;3.80;;;16.60;50.80;;;;;;5049893;28;20497;-91
2022/05/07 01:58:26;;;;;;;4.40;3.87;;;16.60;50.60;;;;;;5068692;28;20467;-91
2022/05/07 02:00:56;;;;;;;4.57;4.17;;;16.60;50.70;;;;;;5067050;28;20459;-92
2022/05/07 02:03:23;;;;;;;3.80;3.43;;;16.50;50.70;;;;;;5066849;28;20451;-90
2022/05/07 02:05:50;;;;;;;4.27;3.80;;;16.50;50.60;;;;;;5047162;28;20445;-94
2022/05/07 02:08:17;;;;;;;16.53;4.30;;;16.50;50.50;;;;;;5081872;28;20483;-90
2022/05/07 02:10:46;;;;;;;5.77;3.40;;;16.50;50.30;;;;;;5049894;28;20468;-91
2022/05/07 02:13:13;;;;;;;3.37;3.07;;;16.40;50.60;;;;;;5068502;28;20478;-91
2022/05/07 02:15:41;;;;;;;5.57;3.60;;;16.30;50.90;;;;;;5081878;28;20548;-92
2022/05/07 02:18:08;;;;;;;5.83;3.07;;;16.10;50.80;;;;;;5060587;28;20474;-91
2022/05/07 02:20:35;;;;;;;4.53;3.97;;;16.20;51.00;;;;;;5098685;28;20967;-91
2022/05/07 02:23:02;;;;;;;6.03;3.50;;;16.20;50.80;;;;;;5051402;28;20516;-90
2022/05/07 02:25:29;;;;;;;5.23;3.50;;;16.20;50.80;;;;;;5100396;28;20517;-93
2022/05/07 02:28:05;;;;;;;3.50;3.13;;;16.20;50.50;;;;;;5065664;28;20550;-92
2022/05/07 02:30:32;;;;;;;6.53;3.20;;;16.00;50.80;;;;;;5065407;28;20455;-92
2022/05/07 02:33:05;;;;;;;2.83;2.63;;;15.50;51.90;;;;;;5081397;28;20436;-92
2022/05/07 02:35:36;;;;;;;3.70;3.30;;;15.50;52.00;;;;;;5068621;28;20958;-92
2022/05/07 02:38:03;;;;;;;4.10;3.80;;;15.60;51.30;;;;;;5092530;28;20533;-91
2022/05/07 02:42:33;;;;;;;3.33;3.07;;;15.70;51.20;;;;;;5078179;28;20490;-91
2022/05/07 02:43:21;;;;;;;4.63;3.57;;;15.80;50.90;;;;;;5099958;28;20993;-91
2022/05/07 02:45:51;;;;;;;3.63;3.33;;;15.80;50.90;;;;;;5049518;28;20471;-91
2022/05/07 02:48:45;;;;;;;4.17;3.80;;;15.80;50.80;;;;;;5065932;28;20476;-91
2022/05/07 02:51:17;;;;;;;5.57;3.77;;;15.80;50.80;;;;;;5062327;28;20982;-92
2022/05/07 02:53:46;;;;;;;6.00;3.77;;;15.70;50.80;;;;;;5074114;28;20584;-91
2022/05/07 02:56:16;;;;;;;3.60;3.30;;;15.80;51.20;;;;;;5048564;28;20456;-92
2022/05/07 02:58:47;;;;;;;4.90;3.93;;;15.60;51.50;;;;;;5079763;28;20493;-91
2022/05/07 03:01:19;;;;;;;5.70;3.67;;;15.60;51.50;;;;;;5081071;28;20456;-91
2022/05/07 03:03:46;;;;;;;4.57;3.17;;;15.70;51.30;;;;;;5047746;28;20478;-91
2022/05/07 03:06:16;;;;;;;4.10;3.77;;;15.80;51.40;;;;;;5064413;28;20459;-92
2022/05/07 03:08:43;;;;;;;3.23;2.87;;;15.80;50.60;;;;;;5084046;28;20537;-91
2022/05/07 03:11:11;;;;;;;3.73;3.40;;;15.80;50.20;;;;;;5112358;28;20455;-91
2022/05/07 03:13:40;;;;;;;4.67;3.60;;;15.80;50.20;;;;;;5079964;28;20451;-90
2022/05/07 03:16:39;;;;;;;3.90;3.60;;;15.80;50.10;;;;;;5067065;28;20484;-91
2022/05/07 03:19:09;;;;;;;5.27;3.80;;;15.70;50.00;;;;;;5080491;28;20813;-91
2022/05/07 03:21:37;;;;;;;4.37;3.47;;;15.60;50.20;;;;;;5066450;28;20447;-92
2022/05/07 03:27:24;;;;;;;6.20;4.00;;;15.60;50.40;;;;;;5080349;28;20470;-90
2022/05/07 03:29:54;;;;;;;4.27;3.90;;;15.50;50.30;;;;;;5079472;28;20472;-93
2022/05/07 03:32:29;;;;;;;3.80;3.40;;;15.50;50.50;;;;;;5065318;28;20452;-92
2022/05/07 03:35:48;;;;;;;7.23;3.93;;;15.40;50.60;;;;;;5068382;28;20453;-91
2022/05/07 03:38:16;;;;;;;4.90;3.80;;;15.40;51.00;;;;;;5062694;28;20560;-91
2022/05/07 03:40:51;;;;;;;7.20;3.83;;;15.40;50.90;;;;;;5065750;28;20432;-94
2022/05/07 03:43:19;;;;;;;4.00;3.00;;;15.40;50.70;;;;;;5067430;28;20505;-91
2022/05/07 03:45:48;;;;;;;3.97;3.60;;;15.40;50.40;;;;;;5070072;28;20463;-91
2022/05/07 03:48:18;;;;;;;3.57;3.23;;;15.40;50.40;;;;;;5069809;28;20621;-92
2022/05/07 03:50:56;;;;;;;3.83;3.43;;;15.40;50.40;;;;;;5066724;28;20454;-91
2022/05/07 03:53:30;;;;;;;3.03;2.83;;;15.30;50.60;;;;;;5071181;28;21369;-91
2022/05/07 03:56:06;;;;;;;4.80;3.57;;;15.30;50.70;;;;;;5053721;28;20918;-93
2022/05/07 03:58:36;;;;;;;4.03;3.30;;;15.20;50.90;;;;;;5052815;28;20483;-91
2022/05/07 04:01:05;;;;;;;4.03;3.60;;;15.20;51.00;;;;;;5083604;28;20546;-91
2022/05/07 04:03:34;;;;;;;4.70;3.67;;;15.20;50.80;;;;;;5055871;28;21047;-91
2022/05/07 04:06:01;;;;;;;3.60;2.97;;;15.20;50.70;;;;;;5069830;28;20460;-91
2022/05/07 04:08:29;;;;;;;4.00;3.63;;;15.20;50.50;;;;;;5099321;28;20982;-93
2022/05/07 04:10:58;;;;;;;4.30;3.63;;;15.30;50.50;;;;;;5067716;28;20479;-91
2022/05/07 04:13:28;;;;;;;3.30;3.00;;;15.20;50.40;;;;;;5070756;28;20451;-91
2022/05/07 04:15:58;;;;;;;4.20;3.30;;;15.20;50.30;;;;;;5064665;28;21010;-91
2022/05/07 04:18:29;;;;;;;4.63;4.20;;;15.20;50.30;;;;;;5068407;28;20476;-91
2022/05/07 04:20:59;;;;;;;4.70;4.00;;;15.20;50.40;;;;;;5071356;28;20436;-92
2022/05/07 04:23:27;;;;;;;5.40;4.90;;;15.10;50.70;;;;;;5084242;28;20902;-91
2022/05/07 04:25:57;;;;;;;4.47;4.00;;;15.00;51.30;;;;;;5065892;28;20452;-93
2022/05/07 04:28:25;;;;;;;5.03;4.50;;;15.00;51.30;;;;;;5068224;28;20483;-94
2022/05/07 04:30:54;;;;;;;5.83;4.30;;;15.00;50.90;;;;;;5083377;28;20468;-91
2022/05/07 04:33:26;;;;;;;5.17;4.47;;;15.00;50.90;;;;;;5068378;28;20443;-91
2022/05/07 04:35:58;;;;;;;4.10;3.70;;;15.10;51.30;;;;;;5053605;28;20452;-91
2022/05/07 04:38:27;;;;;;;4.87;4.40;;;15.10;50.80;;;;;;5053366;28;20459;-90
2022/05/07 04:40:55;;;;;;;5.00;4.50;;;15.10;51.00;;;;;;5052332;28;20509;-91
2022/05/07 04:43:25;;;;;;;5.00;4.50;;;15.10;51.30;;;;;;5056378;28;20467;-91
2022/05/07 04:45:52;;;;;;;5.33;4.40;;;15.00;51.30;;;;;;5052188;28;20451;-92
2022/05/07 04:48:19;;;;;;;4.43;4.03;;;15.10;51.40;;;;;;5070881;28;20566;-91
2022/05/07 04:50:46;;;;;;;3.93;3.63;;;15.10;51.50;;;;;;5068202;28;20478;-91
2022/05/07 04:53:22;;;;;;;6.50;4.37;;;15.00;51.70;;;;;;5085817;28;20451;-92
2022/05/07 04:55:50;;;;;;;4.63;4.23;;;15.00;51.90;;;;;;5052276;28;20456;-91
2022/05/07 04:58:18;;;;;;;5.10;4.70;;;15.00;51.90;;;;;;5067081;28;21029;-89
2022/05/07 05:00:46;;;;;;;5.33;3.70;;;15.00;52.10;;;;;;5100264;28;20486;-91
2022/05/07 05:03:17;;;;;;;4.00;3.70;;;15.00;52.10;;;;;;5068906;28;20531;-93
2022/05/07 05:05:55;;;;;;;4.63;3.83;;;15.10;52.20;;;;;;5068402;28;20459;-92
2022/05/07 05:08:42;;;;;;;9.70;4.03;;;15.10;52.20;;;;;;5083757;28;20470;-90
2022/05/07 05:11:09;;;;;;;4.03;3.63;;;15.10;52.30;;;;;;5083762;28;20476;-91
2022/05/07 05:13:37;;;;;;;5.30;4.20;;;15.10;52.30;;;;;;5065197;28;20946;-91
2022/05/07 05:16:06;;;;;;;4.33;3.87;;;15.10;52.40;;;;;;5051902;28;20451;-92
2022/05/07 05:18:45;;;;;;;9.97;4.40;;;15.10;52.80;;;;;;5111191;27;20472;-92
2022/05/07 05:21:14;;;;;;;5.07;4.47;;;15.10;52.90;;;;;;5053400;28;20793;-92
2022/05/07 05:24:12;;;;;;;4.33;4.03;;;15.20;52.70;;;;;;5080994;28;20462;-91
2022/05/07 05:26:39;;;;;;;5.10;4.40;;;15.20;52.50;;;;;;5079643;28;20470;-91
2022/05/07 05:29:12;;;;;;;9.43;4.27;;;15.30;52.50;;;;;;5067483;28;20475;-91
2022/05/07 05:31:40;;;;;;;4.33;4.03;;;15.30;52.60;;;;;;5070233;28;21026;-92
2022/05/07 05:34:16;;;;;;;5.03;4.33;;;15.20;53.00;;;;;;5082177;28;20462;-91
2022/05/07 05:36:54;;;;;;;5.73;4.03;;;15.20;53.00;;;;;;5064434;28;20560;-91
2022/05/07 05:39:25;;;;;;;5.70;4.63;;;15.30;53.40;;;;;;5064891;28;20501;-90
2022/05/07 05:41:54;;;;;;;6.93;4.30;;;15.20;53.70;;;;;;5067891;28;20443;-90
2022/05/07 05:44:21;;;;;;;5.97;4.50;;;15.10;53.70;;;;;;5063073;28;20482;-92
2022/05/07 05:46:48;;;;;;;5.93;4.93;;;15.10;53.90;;;;;;5061519;28;20497;-92
2022/05/07 05:49:15;;;;;;;5.67;4.80;;;15.20;54.00;;;;;;5084813;28;20555;-90
2022/05/07 05:51:45;;;;;;;4.97;4.47;;;15.30;53.70;;;;;;5065716;28;20459;-91
2022/05/07 05:54:13;;;;;;;5.27;4.60;;;15.20;54.10;;;;;;5068511;28;20466;-92
2022/05/07 05:56:41;;;;;;;5.13;4.63;;;15.30;54.50;;;;;;5067074;28;20466;-91
2022/05/07 05:59:09;;;;;;;7.60;4.73;;;15.50;54.30;;;;;;5065057;28;20475;-90
2022/05/07 06:01:47;;;;;;;4.50;4.10;;;15.60;53.90;;;;;;5065069;28;20468;-90
2022/05/07 06:04:22;;;;;;;5.40;4.90;;;15.70;53.90;;;;;;5100282;28;20473;-93
2022/05/07 06:06:52;;;;;;;5.27;4.77;;;15.70;53.90;;;;;;5084640;28;20456;-90
2022/05/07 06:09:21;;;;;;;6.23;4.57;;;15.80;53.80;;;;;;5066404;28;20467;-90
2022/05/07 06:11:51;;;;;;;5.87;4.60;;;15.90;53.80;;;;;;5079476;28;20534;-91
2022/05/07 06:14:18;;;;;;;5.20;4.70;;;15.90;53.90;;;;;;5076818;28;20527;-91
2022/05/07 06:16:45;;;;;;;5.80;4.20;;;15.90;53.80;;;;;;5053480;28;20459;-92
2022/05/07 06:19:14;;;;;;;4.77;4.30;;;15.80;54.00;;;;;;5050389;28;20479;-90
2022/05/07 06:21:50;;;;;;;7.67;4.17;;;15.90;54.20;;;;;;5062962;28;20459;-90
2022/05/07 06:29:51;;;;;;;4.90;4.20;;;16.00;54.40;;;;;;5083156;28;20526;-90
2022/05/07 06:32:19;;;;;;;8.33;4.60;;;16.30;53.70;;;;;;5067939;28;20448;-93
2022/05/07 06:34:46;;;;;;;4.83;4.43;;;16.40;53.40;;;;;;5064488;28;20455;-90
2022/05/07 06:37:14;;;;;;;7.47;4.70;;;16.30;53.10;;;;;;5068262;28;20456;-90
2022/05/07 06:39:50;;;;;;;4.93;4.20;;;16.10;53.90;;;;;;5065167;28;20447;-90
2022/05/07 06:42:19;;;;;;;4.70;4.30;;;16.00;54.40;;;;;;5064921;28;21302;-94
2022/05/07 06:45:00;;;;;;;4.80;4.40;;;16.00;54.70;;;;;;5053358;28;20452;-92
2022/05/07 06:47:28;;;;;;;4.70;4.03;;;16.00;54.70;;;;;;5066760;28;20476;-90
2022/05/07 06:49:55;;;;;;;5.13;4.70;;;16.00;54.80;;;;;;5083073;28;20453;-90
2022/05/07 06:52:23;;;;;;;5.50;5.00;;;16.00;54.80;;;;;;5050028;28;20437;-91
2022/05/07 06:54:52;;;;;;;4.80;4.33;;;16.40;55.00;;;;;;5065284;28;20452;-90
2022/05/07 06:57:20;;;;;;;6.10;4.40;;;16.60;53.50;;;;;;5066972;28;20466;-90
2022/05/07 06:59:49;;;;;;;6.07;4.27;;;16.70;54.10;;;;;;5046699;28;20472;-91
2022/05/07 07:02:22;;;;;;;6.13;4.53;;;16.80;54.00;;;;;;5084939;28;20448;-90
2022/05/07 07:04:50;;;;;;;5.17;4.67;;;16.70;54.00;;;;;;5068505;28;20450;-90
2022/05/07 07:07:24;;;;;;;5.53;4.93;;;16.70;54.10;;;;;;5068185;28;20479;-90
2022/05/07 07:09:51;;;;;;;5.23;4.67;;;16.80;54.20;;;;;;5086362;28;21149;-91
2022/05/07 07:12:20;;;;;;;5.43;4.63;;;17.10;53.70;;;;;;5054824;28;20482;-90
2022/05/07 07:14:48;;;;;;;4.37;3.77;;;17.00;53.40;;;;;;5077670;28;20455;-92
2022/05/07 07:17:17;;;;;;;4.53;4.13;;;17.00;53.50;;;;;;5065109;28;20478;-92
2022/05/07 07:20:14;;;;;;;5.37;4.47;;;17.00;53.70;;;;;;5063126;28;20459;-90
2022/05/07 07:22:42;;;;;;;5.50;5.00;;;17.40;53.60;;;;;;5086442;28;20443;-89
2022/05/07 07:25:11;;;;;;;4.77;4.37;;;17.80;53.40;;;;;;5078632;28;20448;-91
2022/05/07 07:27:40;;;;;;;5.10;4.60;;;18.20;51.60;;;;;;5081622;28;21311;-90
2022/05/07 07:33:00;;;;;;;4.80;4.20;;;17.90;51.50;;;;;;5067371;28;20449;-89
2022/05/07 07:35:55;;;;;;;4.97;3.60;;;18.00;51.30;;;;;;5084998;28;20455;-90
2022/05/07 07:38:24;;;;;;;4.30;3.90;;;18.00;50.60;;;;;;5048314;28;20480;-90
2022/05/07 07:40:55;;;;;;;4.67;3.63;;;18.10;51.40;;;;;;5075934;28;20480;-88
2022/05/07 07:43:23;;;;;;;4.17;3.87;;;18.30;51.20;;;;;;5099023;28;20458;-92
2022/05/07 07:49:46;;;;;;;3.60;3.30;;;18.90;50.50;;;;;;5080719;28;20447;-90
2022/05/07 07:52:17;;;;;;;4.17;3.87;;;19.00;50.80;;;;;;5053737;28;20539;-90
2022/05/07 07:55:10;;;;;;;5.97;3.70;;;19.10;50.50;;;;;;5051346;28;20448;-92
2022/05/07 07:57:37;;;;;;;4.10;3.80;;;19.00;50.60;;;;;;5080403;28;21371;-90
2022/05/07 08:00:07;;;;;;;3.70;3.40;;;19.00;50.80;;;;;;5085581;28;20662;-89
2022/05/07 08:02:47;;;;;;;6.43;4.13;;;19.30;50.40;;;;;;5070316;28;20439;-90
2022/05/07 08:13:43;;;;;;;5.27;3.70;;;20.00;49.50;;;;;;5076724;28;20452;-89
2022/05/07 08:16:12;;;;;;;3.93;3.37;;;20.10;49.30;;;;;;5081143;28;20499;-92
2022/05/07 08:18:40;;;;;;;4.43;3.70;;;20.00;50.10;;;;;;5080544;28;20456;-92
2022/05/07 08:21:08;;;;;;;4.00;3.20;;;20.10;49.90;;;;;;5098565;28;20440;-90
2022/05/07 08:23:35;;;;;;;4.30;3.90;;;20.20;50.10;;;;;;5101991;28;20460;-89
2022/05/07 08:26:04;;;;;;;3.77;3.43;;;20.30;49.20;;;;;;5077710;28;20456;-88
2022/05/07 08:28:31;;;;;;;4.03;3.73;;;20.40;49.00;;;;;;5086241;28;20470;-89
2022/05/07 08:30:58;;;;;;;4.17;3.77;;;20.60;49.20;;;;;;5066844;28;20475;-90
2022/05/07 08:33:26;;;;;;;4.07;3.67;;;20.80;48.60;;;;;;5082633;28;20522;-90
2022/05/07 08:35:53;;;;;;;3.47;3.27;;;21.10;48.70;;;;;;5084223;28;20439;-89
2022/05/07 08:38:23;;;;;;;4.80;3.73;;;21.30;48.30;;;;;;5066473;28;20505;-89
2022/05/07 08:40:50;;;;;;;4.70;3.10;;;21.40;47.90;;;;;;5077087;28;20448;-90
2022/05/07 08:43:18;;;;;;;3.70;3.40;;;21.50;47.40;;;;;;5079256;28;20442;-90
2022/05/07 08:45:46;;;;;;;3.77;3.37;;;21.50;47.40;;;;;;5083377;28;20959;-90
2022/05/07 08:48:41;;;;;;;6.53;3.20;;;21.70;47.40;;;;;;5044213;28;20467;-93
2022/05/07 08:51:09;;;;;;;3.40;3.10;;;21.80;47.20;;;;;;5055529;28;20579;-90
2022/05/07 08:53:36;;;;;;;5.93;3.30;;;22.00;46.90;;;;;;5036332;28;20443;-89
2022/05/07 08:56:04;;;;;;;3.83;3.23;;;22.10;45.90;;;;;;5020713;28;20430;-92
2022/05/07 08:58:31;;;;;;;3.40;3.10;;;22.10;45.80;;;;;;5065868;28;20472;-92
2022/05/07 09:00:59;;;;;;;3.80;3.47;;;22.30;46.40;;;;;;5058685;28;20543;-90
2022/05/07 09:03:39;;;;;;;4.10;3.70;;;22.50;45.50;;;;;;5052411;28;20456;-90
2022/05/07 09:06:18;;;;;;;3.80;3.30;;;22.70;44.30;;;;;;5022838;28;20777;-91
2022/05/07 09:08:47;;;;;;;3.53;2.70;;;22.80;44.50;;;;;;5036898;28;20483;-91
2022/05/07 09:11:14;;;;;;;3.13;2.93;;;22.90;43.20;;;;;;5025056;28;20488;-91
2022/05/07 09:13:41;;;;;;;2.80;2.60;;;23.00;41.90;;;;;;5071526;28;20547;-90
2022/05/07 09:16:09;;;;;;;5.17;3.47;;;23.00;42.00;;;;;;5055620;28;20451;-91
2022/05/07 09:18:36;;;;;;;4.73;3.50;;;23.10;41.70;;;;;;5025038;28;20491;-92
2022/05/07 09:21:17;;;;;;;3.10;2.90;;;23.10;41.30;;;;;;5069485;28;20441;-90
2022/05/07 09:24:00;;;;;;;4.80;2.97;;;23.20;40.10;;;;;;5054101;28;20630;-90
2022/05/07 09:26:29;;;;;;;3.60;2.80;;;23.60;41.70;;;;;;5087887;28;20448;-90
2022/05/07 09:28:56;;;;;;;3.87;2.90;;;24.00;41.10;;;;;;5071207;28;20472;-90
2022/05/07 09:31:27;;;;;;;3.60;2.63;;;24.00;39.90;;;;;;5075493;28;20477;-90
2022/05/07 09:33:55;;;;;;;4.97;3.03;;;24.10;39.40;;;;;;5073138;28;20461;-88
2022/05/07 09:36:23;;;;;;;3.57;2.90;;;24.00;39.30;;;;;;5076176;28;20474;-90
2022/05/07 09:39:01;;;;;;;2.60;2.40;;;23.90;38.90;;;;;;5055487;28;20461;-88
2022/05/07 09:41:28;;;;;;;9.13;2.73;;;23.60;34.80;;;;;;5077927;28;21088;-90
2022/05/07 09:43:55;;;;;;;2.70;2.50;;;23.80;36.80;;;;;;5054661;28;20530;-90
2022/05/07 09:46:23;;;;;;;2.63;2.43;;;24.00;37.70;;;;;;5044850;28;20514;-92
2022/05/07 09:48:51;;;;;;;4.73;2.30;;;24.60;36.70;;;;;;5049384;28;20848;-89
2022/05/07 09:51:20;;;;;;;4.63;2.37;;;25.10;35.80;;;;;;5076461;28;20517;-89
2022/05/07 09:59:20;;;;;;;3.10;2.10;;;25.50;32.10;;;;;;5085667;28;20468;-90
2022/05/07 10:02:22;;;;;;;2.30;2.17;;;25.70;31.90;;;;;;5039620;28;20479;-92
2022/05/07 10:05:20;;;;;;;2.20;2.00;;;25.90;32.00;;;;;;5028307;28;20447;-91
2022/05/07 10:08:06;;;;;;;2.20;2.10;;;25.60;31.50;;;;;;5069810;28;20496;-90
2022/05/07 10:10:37;;;;;;;3.67;2.47;;;25.60;31.00;;;;;;5053634;28;20440;-91
2022/05/07 10:13:06;;;;;;;2.60;2.40;;;25.80;33.10;;;;;;5088215;28;20456;-89
2022/05/07 10:15:33;;;;;;;2.60;2.20;;;26.00;32.00;;;;;;5090958;28;20955;-88
2022/05/07 10:18:02;;;;;;;7.03;3.30;;;25.90;32.40;;;;;;5054742;28;20471;-88
2022/05/07 10:20:40;;;;;;;7.43;3.67;;;25.70;30.00;;;;;;5081566;28;20474;-90
2022/05/07 10:23:09;;;;;;;7.70;2.90;;;25.60;34.50;;;;;;5092660;28;20438;-88
2022/05/07 10:25:37;;;;;;;6.53;3.40;;;25.60;31.60;;;;;;5047050;28;20443;-87
2022/05/07 10:28:13;;;;;;;17.87;4.53;;;25.90;31.30;;;;;;5090826;28;20562;-89
2022/05/07 10:30:48;;;;;;;6.67;2.60;;;26.20;32.90;;;;;;5076824;28;20501;-89
2022/05/07 10:33:15;;;;;;;3.07;2.10;;;26.30;31.70;;;;;;5061934;28;20470;-87
2022/05/07 10:35:44;;;;;;;2.97;2.10;;;26.30;30.00;;;;;;5092238;28;20509;-88
2022/05/07 10:38:12;;;;;;;3.17;2.87;;;26.10;29.60;;;;;;5089186;28;20471;-86
2022/05/07 10:40:50;;;;;;;12.27;4.50;;;26.10;31.50;;;;;;5091543;28;20450;-86
2022/05/07 10:43:31;;;;;;;5.70;2.10;;;26.30;30.30;;;;;;5079860;28;20443;-86
2022/05/07 10:46:02;;;;;;;3.93;2.13;;;26.20;28.70;;;;;;5081732;28;20454;-86
2022/05/07 10:48:30;;;;;;;3.43;2.40;;;26.30;30.00;;;;;;5074602;28;21039;-87
2022/05/07 10:51:02;;;;;;;2.20;2.00;;;26.60;28.50;;;;;;5090796;28;20930;-86
2022/05/07 10:53:39;;;;;;;7.80;2.30;;;26.40;28.10;;;;;;5079097;28;20773;-89
2022/05/07 10:56:12;;;;;;;2.53;1.83;;;26.40;28.40;;;;;;5090999;28;20447;-90
2022/05/07 10:58:45;;;;;;;2.93;2.50;;;26.50;30.00;;;;;;5092070;28;20477;-90
2022/05/07 11:01:13;;;;;;;1.90;1.70;;;26.30;28.10;;;;;;5082792;28;20532;-87
2022/05/07 11:03:40;;;;;;;3.30;2.10;;;26.70;29.30;;;;;;5075536;28;20463;-90
2022/05/07 11:06:07;;;;;;;2.20;2.00;;;27.10;28.20;;;;;;5055372;28;20558;-89
2022/05/07 11:08:35;;;;;;;4.57;1.87;;;27.20;27.70;;;;;;5059456;28;20547;-89
2022/05/07 11:11:08;;;;;;;2.97;1.90;;;27.40;27.80;;;;;;5091297;28;20738;-89
2022/05/07 11:13:44;;;;;;;2.30;1.73;;;27.40;27.50;;;;;;5059474;28;20467;-88
2022/05/07 11:16:12;;;;;;;2.13;1.87;;;27.70;29.20;;;;;;5082548;28;20432;-90
2022/05/07 11:18:41;;;;;;;3.47;2.10;;;27.50;26.60;;;;;;5049781;28;20495;-89
2022/05/07 11:21:08;;;;;;;3.23;1.83;;;27.00;27.20;;;;;;5043946;28;20533;-91
2022/05/07 11:23:39;;;;;;;2.07;1.87;;;26.50;28.20;;;;;;5073305;28;20459;-88
2022/05/07 11:26:13;;;;;;;2.33;2.13;;;26.60;28.70;;;;;;5094640;28;20438;-88
2022/05/07 11:28:41;;;;;;;1.60;1.50;;;27.10;29.90;;;;;;5071450;28;20706;-91
2022/05/07 11:31:08;;;;;;;3.87;1.80;;;27.50;27.90;;;;;;5065366;28;20452;-92
2022/05/07 11:33:37;;;;;;;2.37;1.87;;;27.50;27.20;;;;;;5077809;28;20876;-90
2022/05/07 11:36:06;;;;;;;2.60;1.80;;;27.60;27.10;;;;;;5093225;28;20462;-89
2022/05/07 11:38:34;;;;;;;1.90;1.67;;;27.50;26.20;;;;;;5059521;28;21218;-91
2022/05/07 11:41:12;;;;;;;2.00;1.60;;;27.60;26.60;;;;;;5077198;28;20479;-89
2022/05/07 11:46:23;;;;;;;3.50;1.70;;;27.70;27.10;;;;;;5047949;28;20454;-92
2022/05/07 11:48:52;;;;;;;2.07;1.50;;;27.70;26.00;;;;;;5108442;27;20462;-94
2022/05/07 11:51:26;;;;;;;1.80;1.70;;;27.70;26.00;;;;;;5063956;28;20475;-93
2022/05/07 11:53:53;;;;;;;2.00;1.80;;;27.50;25.80;;;;;;5058823;28;20479;-91
2022/05/07 11:56:20;;;;;;;4.30;1.90;;;27.40;26.10;;;;;;5075265;28;20435;-92
2022/05/07 11:58:51;;;;;;;2.43;2.07;;;27.60;26.30;;;;;;5084012;28;20640;-89
2022/05/07 12:01:20;;;;;;;2.13;1.53;;;27.70;26.10;;;;;;5092162;28;20865;-91
2022/05/07 12:07:00;;;;;;;1.87;1.77;;;27.60;27.10;;;;;;5113053;27;20556;-90
2022/05/07 12:09:28;;;;;;;7.23;2.70;;;28.00;26.40;;;;;;5086673;28;20492;-90
2022/05/07 12:11:56;;;;;;;2.23;1.87;;;28.10;26.20;;;;;;5075267;28;20439;-91
2022/05/07 12:14:25;;;;;;;1.97;1.77;;;27.40;25.90;;;;;;5097777;28;20508;-92
2022/05/07 12:19:37;;;;;;;2.60;1.80;;;27.50;27.00;;;;;;5088584;28;20435;-89
2022/05/07 12:30:19;;;;;;;2.30;1.90;;;27.40;27.30;;;;;;5084790;28;20435;-92
2022/05/07 12:32:48;;;;;;;1.93;1.80;;;26.90;27.70;;;;;;5071462;28;21047;-91
2022/05/07 12:35:15;;;;;;;1.80;1.70;;;26.60;28.30;;;;;;5089796;28;20449;-91
2022/05/07 12:37:44;;;;;;;1.90;1.70;;;26.40;27.60;;;;;;5066942;28;20647;-92
2022/05/07 12:40:12;;;;;;;2.20;1.90;;;26.60;27.20;;;;;;5095235;28;20519;-93
2022/05/07 12:42:39;;;;;;;3.70;1.90;;;27.00;27.20;;;;;;5076708;28;20441;-89
2022/05/07 12:45:07;;;;;;;1.57;1.43;;;27.10;27.50;;;;;;5077867;28;21223;-90
2022/05/07 12:47:34;;;;;;;3.63;2.17;;;27.30;28.00;;;;;;5110224;28;20992;-90
2022/05/07 12:50:01;;;;;;;2.73;2.00;;;27.50;28.70;;;;;;5092188;28;20837;-90
2022/05/07 12:52:28;;;;;;;2.90;1.73;;;27.60;28.00;;;;;;5086897;28;20534;-90
2022/05/07 12:54:56;;;;;;;1.87;1.77;;;27.40;26.90;;;;;;5087142;28;20443;-89
2022/05/07 12:57:23;;;;;;;2.90;1.90;;;27.30;29.20;;;;;;5091008;28;20439;-92
2022/05/07 12:59:50;;;;;;;2.40;2.13;;;27.20;28.30;;;;;;5087914;27;20683;-89
2022/05/07 13:02:18;;;;;;;3.83;1.90;;;27.00;28.60;;;;;;5090342;28;20992;-90
2022/05/07 13:04:46;;;;;;;1.90;1.80;;;27.20;29.00;;;;;;5090774;28;20969;-90
2022/05/07 13:07:13;;;;;;;2.60;2.00;;;27.20;27.30;;;;;;5088714;28;20529;-89
2022/05/07 13:09:40;;;;;;;1.70;1.60;;;27.40;28.30;;;;;;5058664;28;20452;-92
2022/05/07 13:12:13;;;;;;;3.20;1.90;;;27.60;27.80;;;;;;5075909;28;20435;-93
2022/05/07 13:14:40;;;;;;;3.47;1.90;;;27.40;27.70;;;;;;5077034;28;20457;-90
2022/05/07 13:17:07;;;;;;;2.07;1.90;;;27.10;27.70;;;;;;5051573;28;20447;-89
2022/05/07 13:19:34;;;;;;;1.67;1.50;;;26.70;28.60;;;;;;5068074;28;21148;-90
2022/05/07 13:22:01;;;;;;;4.13;2.00;;;26.60;28.20;;;;;;5061154;28;20451;-90
2022/05/07 13:24:29;;;;;;;4.10;1.97;;;26.80;27.80;;;;;;5069011;28;20992;-89
2022/05/07 13:26:56;;;;;;;2.03;1.70;;;27.00;28.10;;;;;;5075430;28;20459;-89
2022/05/07 13:29:24;;;;;;;2.00;1.90;;;26.90;28.00;;;;;;5075221;28;20875;-90
2022/05/07 13:31:51;;;;;;;2.27;1.80;;;26.70;29.00;;;;;;5075316;28;20452;-91
2022/05/07 13:34:18;;;;;;;4.03;1.70;;;26.90;28.20;;;;;;5066825;28;20454;-90
2022/05/07 13:36:45;;;;;;;3.87;2.27;;;27.20;28.90;;;;;;5061582;28;20535;-91
2022/05/07 13:39:12;;;;;;;2.20;2.00;;;27.30;27.30;;;;;;5066348;28;20569;-91
2022/05/07 13:41:39;;;;;;;1.83;1.73;;;27.20;28.10;;;;;;5096792;28;20451;-92
2022/05/07 13:44:10;;;;;;;5.43;1.90;;;27.30;26.80;;;;;;5068727;28;20511;-89
2022/05/07 13:46:39;;;;;;;2.13;1.93;;;27.30;27.90;;;;;;5084198;28;20478;-90
2022/05/07 13:49:06;;;;;;;2.57;1.70;;;27.30;26.20;;;;;;5070392;28;20506;-91
2022/05/07 13:51:33;;;;;;;2.13;1.93;;;27.30;27.60;;;;;;5086035;28;20511;-91
2022/05/07 13:54:00;;;;;;;2.00;1.90;;;27.30;27.00;;;;;;5098853;28;20811;-92
2022/05/07 13:56:27;;;;;;;1.80;1.70;;;27.40;26.60;;;;;;5069605;28;20455;-90
2022/05/07 13:58:54;;;;;;;2.20;2.00;;;27.50;27.30;;;;;;5068580;28;20488;-90
2022/05/07 14:01:21;;;;;;;2.13;1.90;;;27.40;27.50;;;;;;5083977;28;20467;-91
2022/05/07 14:03:50;;;;;;;1.70;1.60;;;27.60;27.90;;;;;;5087880;28;20455;-90
2022/05/07 14:06:19;;;;;;;2.07;1.87;;;27.70;28.00;;;;;;5064146;28;20493;-92
2022/05/07 14:08:48;;;;;;;2.30;2.10;;;27.90;27.30;;;;;;5083903;28;20944;-89
2022/05/07 14:11:15;;;;;;;1.80;1.70;;;27.70;27.90;;;;;;5081587;28;20513;-92